• pl
  • eng

Awiacja
Komunikaty METAR z lotnisk wojskowych. 19:01 17.08.2019

METAR EPCE 171730Z 15003KT 9999 OVC083 20/10
Q1011 RMK 204 052 8/8=

METAR EPDA 171730Z 16006KT 110V200 9999 BKN077 21/11
Q1009 RMK 209 053 7/7=

METAR EPDE 171730Z 18002KT CAVOK 23/13 Q1014 RMK 225 055 7/7=

METAR EPIR 171730Z NIL=

METAR EPKS 171730Z 14005KT CAVOK 23/10 Q1011 RMK 227 043 7/7=

METAR EPLK 171730Z 22005KT CAVOK 21/10 Q1014 RMK 213 047 5/5=

METAR EPLY 171730Z NIL=

METAR EPMB 171730Z 23005KT 9999 BKN200 21/12 Q1012 RMK 206 056 7/7=

METAR EPMI 171730Z NIL=

METAR EPMM 171730Z NIL=

METAR EPNA 171730Z NIL=

METAR EPOK 171730Z 16007KT 9999 OVC100 22/11
Q1011 RMK 215 050 8/8=

METAR EPPR 171730Z NIL=

METAR EPPW 171730Z 20004KT CAVOK 23/10 Q1012 RMK 227 044 5/3 =

METAR EPRA 171730Z 20002KT CAVOK 23/14 Q1014 RMK 227 059 5/5=

METAR EPSN 171730Z 17006KT 140V200 9999 BKN070 22/12 Q1009 RMK 215
053 7/7=

METAR EPTM 171730Z NIL=
 METAR EPSN
Lokalizacja:EPSN Świdwin
Czas:17:30 UTC
Średni kierunek wiatru:170 °
Średnia prędkość wiatru:6 węzłów
Kierunek wiatru zmienia się od:140 °
Kierunek wiatru zmienia się do:200 °
Widzialność:10 km i więcej
Pierwsza warstwa chmur:5/8 do 7/8, wysokość podstawy 7000 FT
Temperatura powietrza:22 °C
Temperatura punktu rosy:12 °C
Ciśnienie QNH:1009 hPa
Dokładna temperatura powietrza:21,5 °C
Dokładna wilgotność względna:53 %
Zachmurzenie przez wszystkie piętra chmur:7/8
Zachmurzenie przez chmury niskie:7/8
Awiacja.imgw.pl jest pogodowym serwisem informacyjnym
Instytutu Meteorologii i Gospodarki Wodnej Państwowego Instytutu Badawczego.
Copyright IMGW PIB 2009-2011© Wszelkie prawa zastrzeżone.